Somerset, Michigan
Current Conditions -  °F | °C
As of 9:14 AM on Tuesday 21 Oct 2014 (Local Time) from KJYM Reporting Station
Haze Haze  
Wind Chill: 42°   Ceiling: 700
Heat Index: 46°   Visibility: 3mi
Dew Point: 46°   Wind: 8mph
Humidity: 100%   Direction: 340°NNW
Pressure: 30.01"   Gusts: NA
Location:  42.05°N, 84.38°W
Report Text: KJYM 211314Z AUTO 34007KT 3SM BR OVC007 08/08 A3001 RMK AO2 T00770077
Loading
Personal Weather Stations






























Interactive Weather Map
Tropical Storm Tracking
New forecast layout! Learn more

10-Day Weather Forecast

Advertisements
Track Severe Weather on mobile